Time;durP1;ratioP1;P1;durP2;ratioP2;P2;SDS_P1;SDS_P2;PMS_P1;PMS_P2;Temp;Humidity;BMP_temperature;BMP_pressure;BME280_temperature;BME280_humidity;BME280_pressure;Samples;Min_cycle;Max_cycle;Signal;HPM_P1;HPM_P2
2023/08/24 00:00:43;;;;;;;8.67;7.90;;;19.70;94.90;;;;;;5087399;28;20739;-77
2023/08/24 00:03:10;;;;;;;9.13;8.27;;;19.60;95.10;;;;;;5089043;28;20656;-76
2023/08/24 00:05:38;;;;;;;10.43;7.53;;;19.60;94.90;;;;;;5088808;28;20612;-76
2023/08/24 00:08:06;;;;;;;9.17;8.27;;;19.50;95.50;;;;;;5089220;28;20636;-77
2023/08/24 00:10:34;;;;;;;11.10;9.03;;;19.50;95.10;;;;;;5088211;28;21796;-77
2023/08/24 00:13:01;;;;;;;8.43;7.70;;;19.50;95.20;;;;;;5089382;28;20632;-77
2023/08/24 00:15:28;;;;;;;7.90;7.20;;;19.50;95.50;;;;;;5088236;28;20667;-77
2023/08/24 00:17:54;;;;;;;8.20;7.50;;;19.40;95.40;;;;;;5088947;28;20639;-76
2023/08/24 00:20:22;;;;;;;8.03;7.17;;;19.40;95.30;;;;;;5087523;28;21208;-77
2023/08/24 00:22:49;;;;;;;9.50;8.57;;;19.40;94.90;;;;;;5089201;28;21259;-76
2023/08/24 00:25:18;;;;;;;9.83;8.93;;;19.50;94.50;;;;;;5088030;28;21430;-77
2023/08/24 00:27:46;;;;;;;10.00;9.20;;;19.50;94.40;;;;;;5087869;28;21189;-76
2023/08/24 00:30:13;;;;;;;10.70;9.67;;;19.50;94.70;;;;;;5087380;28;20626;-77
2023/08/24 00:32:40;;;;;;;8.83;8.03;;;19.40;94.80;;;;;;5088272;28;20625;-77
2023/08/24 00:35:10;;;;;;;8.17;7.47;;;19.50;94.90;;;;;;5088920;28;20626;-77
2023/08/24 00:37:37;;;;;;;9.07;8.17;;;19.50;95.70;;;;;;5088783;28;20624;-77
2023/08/24 00:40:08;;;;;;;8.57;7.77;;;19.30;95.90;;;;;;5087572;28;20634;-77
2023/08/24 00:42:38;;;;;;;8.63;7.73;;;19.30;96.00;;;;;;5088629;28;20632;-76
2023/08/24 00:45:07;;;;;;;7.57;6.70;;;19.40;96.20;;;;;;5087241;28;21322;-77
2023/08/24 00:47:34;;;;;;;7.47;6.77;;;19.50;95.30;;;;;;5088611;28;20635;-76
2023/08/24 00:50:03;;;;;;;8.53;7.73;;;19.60;94.80;;;;;;5088167;28;20681;-76
2023/08/24 00:52:32;;;;;;;9.33;8.13;;;19.80;94.00;;;;;;5087295;28;20632;-77
2023/08/24 00:54:59;;;;;;;7.83;7.13;;;19.80;93.90;;;;;;5087784;28;21102;-77
2023/08/24 00:57:27;;;;;;;8.97;7.50;;;19.90;93.90;;;;;;5087094;28;22460;-77
2023/08/24 00:59:53;;;;;;;9.50;7.53;;;20.00;94.20;;;;;;5087150;28;20624;-76
2023/08/24 01:02:22;;;;;;;10.63;8.07;;;20.00;94.20;;;;;;5088206;28;21019;-77
2023/08/24 01:04:48;;;;;;;7.87;7.17;;;20.00;94.10;;;;;;5088114;28;20628;-77
2023/08/24 01:07:16;;;;;;;8.80;7.80;;;20.00;94.10;;;;;;5086835;28;20636;-77
2023/08/24 01:09:43;;;;;;;9.03;8.10;;;19.90;94.00;;;;;;5086891;28;20996;-76
2023/08/24 01:12:24;;;;;;;7.70;6.90;;;19.90;94.30;;;;;;5086456;28;20743;-77
2023/08/24 01:15:01;;;;;;;8.30;6.77;;;19.80;95.00;;;;;;5087791;28;20632;-77
2023/08/24 01:17:31;;;;;;;9.10;7.43;;;19.80;95.60;;;;;;5067621;28;20645;-77
2023/08/24 01:20:02;;;;;;;10.17;7.80;;;19.60;95.70;;;;;;5089888;27;20675;-76
2023/08/24 01:22:35;;;;;;;7.60;6.90;;;19.60;95.80;;;;;;5087108;28;20928;-76
2023/08/24 01:25:08;;;;;;;8.50;7.70;;;19.60;96.30;;;;;;5088210;28;21395;-76
2023/08/24 01:27:40;;;;;;;7.90;7.10;;;19.60;96.60;;;;;;5087007;28;20681;-76
2023/08/24 01:30:09;;;;;;;6.70;6.20;;;19.60;96.60;;;;;;5087497;28;20628;-77
2023/08/24 01:32:38;;;;;;;8.70;7.80;;;19.50;96.70;;;;;;5086908;28;20617;-78
2023/08/24 01:35:08;;;;;;;9.33;7.43;;;19.40;96.90;;;;;;5086270;28;20709;-77
2023/08/24 01:37:37;;;;;;;8.20;7.30;;;19.40;97.10;;;;;;5087058;28;20825;-77
2023/08/24 01:40:12;;;;;;;7.37;6.70;;;19.40;96.80;;;;;;5086820;28;20679;-77
2023/08/24 01:42:48;;;;;;;8.90;8.00;;;19.40;96.90;;;;;;5087875;28;20628;-77
2023/08/24 01:45:18;;;;;;;8.07;7.27;;;19.30;97.50;;;;;;5086965;28;20748;-77
2023/08/24 01:47:48;;;;;;;7.67;6.93;;;19.10;97.70;;;;;;5086218;28;20624;-77
2023/08/24 01:50:15;;;;;;;8.20;7.43;;;19.10;98.10;;;;;;5086125;28;20731;-77
2023/08/24 01:52:43;;;;;;;7.60;6.90;;;19.10;98.20;;;;;;5087610;28;20656;-77
2023/08/24 01:55:10;;;;;;;7.63;6.93;;;19.10;97.50;;;;;;5086376;28;21092;-78
2023/08/24 01:57:37;;;;;;;8.87;8.07;;;19.10;97.90;;;;;;5087326;28;20755;-76
2023/08/24 02:00:07;;;;;;;9.20;8.03;;;19.10;97.60;;;;;;5086111;28;20635;-77
2023/08/24 02:02:35;;;;;;;8.17;7.37;;;19.10;97.70;;;;;;5086541;28;20983;-76
2023/08/24 02:05:02;;;;;;;8.80;8.00;;;19.00;97.70;;;;;;5086651;28;20620;-77
2023/08/24 02:07:29;;;;;;;8.17;7.43;;;19.00;98.10;;;;;;5085676;28;20640;-78
2023/08/24 02:09:57;;;;;;;7.73;7.00;;;18.90;98.20;;;;;;5086243;28;21182;-78
2023/08/24 02:12:24;;;;;;;8.13;7.30;;;18.90;98.70;;;;;;5085418;28;20616;-78
2023/08/24 02:14:51;;;;;;;10.30;8.70;;;18.90;98.90;;;;;;5086778;28;20632;-78
2023/08/24 02:17:19;;;;;;;8.17;7.47;;;18.80;99.30;;;;;;5086623;28;20644;-78
2023/08/24 02:19:47;;;;;;;8.70;7.90;;;18.80;99.10;;;;;;5086816;28;20629;-78
2023/08/24 02:22:15;;;;;;;8.53;7.73;;;18.80;98.40;;;;;;5085439;28;20620;-76
2023/08/24 02:24:43;;;;;;;9.17;8.27;;;18.80;98.20;;;;;;5086006;28;21012;-76
2023/08/24 02:27:13;;;;;;;8.73;7.83;;;18.80;98.80;;;;;;5085553;28;20683;-76
2023/08/24 02:29:41;;;;;;;8.80;7.97;;;18.70;99.20;;;;;;5085726;28;20612;-76
2023/08/24 02:32:09;;;;;;;8.17;7.37;;;18.60;99.60;;;;;;5087330;28;20628;-76
2023/08/24 02:34:38;;;;;;;7.97;7.17;;;18.60;99.90;;;;;;5086804;28;20625;-76
2023/08/24 02:37:09;;;;;;;8.80;7.90;;;18.50;99.90;;;;;;5085684;28;21018;-76
2023/08/24 02:39:36;;;;;;;8.93;8.13;;;18.50;99.90;;;;;;5085134;28;20636;-76
2023/08/24 02:42:05;;;;;;;9.03;8.27;;;18.40;99.90;;;;;;5086263;28;20660;-76
2023/08/24 02:44:32;;;;;;;8.67;7.87;;;18.50;99.90;;;;;;5087354;28;20635;-76
2023/08/24 02:47:02;;;;;;;10.13;8.60;;;18.50;99.90;;;;;;5087529;28;20624;-76
2023/08/24 02:49:31;;;;;;;10.10;9.20;;;18.60;99.90;;;;;;5089679;28;20840;-76
2023/08/24 02:52:00;;;;;;;9.27;8.37;;;18.60;99.90;;;;;;5090982;28;20975;-76
2023/08/24 02:54:26;;;;;;;8.27;7.47;;;18.60;99.90;;;;;;5090467;28;20626;-76
2023/08/24 02:56:54;;;;;;;13.03;9.20;;;18.60;99.90;;;;;;5090981;28;20700;-76
2023/08/24 02:59:21;;;;;;;9.77;8.80;;;18.60;99.90;;;;;;5089987;28;20763;-76
2023/08/24 03:01:48;;;;;;;10.87;9.40;;;18.70;99.90;;;;;;5089401;28;20723;-76
2023/08/24 03:04:15;;;;;;;9.60;8.70;;;18.70;99.90;;;;;;5090318;28;21195;-76
2023/08/24 03:06:44;;;;;;;8.90;7.83;;;18.70;99.90;;;;;;5089967;28;20685;-76
2023/08/24 03:09:12;;;;;;;10.13;9.13;;;18.70;99.90;;;;;;5088857;28;20630;-76
2023/08/24 03:11:39;;;;;;;10.90;9.77;;;18.70;99.90;;;;;;5090564;28;20621;-79
2023/08/24 03:14:06;;;;;;;9.07;8.27;;;18.60;99.90;;;;;;5089701;28;21176;-76
2023/08/24 03:16:32;;;;;;;9.50;8.70;;;18.60;99.90;;;;;;5089419;28;21415;-76
2023/08/24 03:18:59;;;;;;;9.10;8.37;;;18.50;99.90;;;;;;5088678;28;20628;-76
2023/08/24 03:21:26;;;;;;;7.57;6.97;;;18.50;99.90;;;;;;5089570;28;20629;-77
2023/08/24 03:23:53;;;;;;;8.83;7.93;;;18.50;99.90;;;;;;5090014;28;20634;-77
2023/08/24 03:26:24;;;;;;;9.50;8.20;;;18.60;99.90;;;;;;5089006;28;20631;-77
2023/08/24 03:28:50;;;;;;;10.00;7.70;;;18.70;99.90;;;;;;5089033;28;20631;-77
2023/08/24 03:31:17;;;;;;;8.40;7.70;;;18.70;99.90;;;;;;5089417;28;20778;-77
2023/08/24 03:33:45;;;;;;;8.70;7.60;;;18.70;99.90;;;;;;5090015;28;20693;-76
2023/08/24 03:36:12;;;;;;;9.23;8.37;;;18.60;99.90;;;;;;5089255;28;20629;-77
2023/08/24 03:38:39;;;;;;;8.50;7.70;;;18.60;99.90;;;;;;5089120;28;20724;-77
2023/08/24 03:41:06;;;;;;;6.83;6.30;;;18.60;99.90;;;;;;5088085;28;20731;-77
2023/08/24 03:43:36;;;;;;;8.40;7.40;;;18.50;99.90;;;;;;5089543;28;20631;-76
2023/08/24 03:46:05;;;;;;;9.47;8.17;;;18.50;99.90;;;;;;5089182;28;20636;-77
2023/08/24 03:48:32;;;;;;;9.13;8.23;;;18.50;99.90;;;;;;5088784;28;20616;-76
2023/08/24 03:50:59;;;;;;;9.40;8.40;;;18.50;99.90;;;;;;5089264;28;21235;-78
2023/08/24 03:53:26;;;;;;;8.40;7.60;;;18.60;99.90;;;;;;5089616;28;20638;-77
2023/08/24 03:55:55;;;;;;;9.83;8.77;;;18.70;99.90;;;;;;5088844;28;21804;-77
2023/08/24 03:58:21;;;;;;;7.67;6.90;;;18.70;99.90;;;;;;5087845;28;20655;-77
2023/08/24 04:00:50;;;;;;;11.13;6.90;;;18.70;99.90;;;;;;5088173;28;20979;-77
2023/08/24 04:03:17;;;;;;;8.03;6.87;;;18.80;99.90;;;;;;5089609;28;21898;-76
2023/08/24 04:05:43;;;;;;;6.90;6.30;;;18.90;99.90;;;;;;5087834;28;20628;-76
2023/08/24 04:08:10;;;;;;;9.13;7.43;;;19.10;99.90;;;;;;5089064;28;20792;-77
2023/08/24 04:10:38;;;;;;;10.17;8.90;;;19.20;99.90;;;;;;5087460;28;20628;-77
2023/08/24 04:13:05;;;;;;;9.23;8.33;;;19.30;99.90;;;;;;5089319;28;20662;-77
2023/08/24 04:15:31;;;;;;;8.40;7.50;;;19.30;99.70;;;;;;5088843;28;20767;-76
2023/08/24 04:18:00;;;;;;;7.67;7.00;;;19.30;99.90;;;;;;5088810;28;20659;-78
2023/08/24 04:20:26;;;;;;;7.57;6.87;;;19.30;99.90;;;;;;5088466;28;20723;-77
2023/08/24 04:22:53;;;;;;;6.43;5.87;;;19.30;99.80;;;;;;5088519;28;20642;-77
2023/08/24 04:25:20;;;;;;;7.20;6.50;;;19.40;99.40;;;;;;5088681;28;20642;-77
2023/08/24 04:27:47;;;;;;;8.47;7.67;;;19.40;99.10;;;;;;5087934;28;20754;-77
2023/08/24 04:30:14;;;;;;;8.10;7.37;;;19.50;99.20;;;;;;5087372;28;20638;-77
2023/08/24 04:32:41;;;;;;;7.93;7.33;;;19.60;99.00;;;;;;5088850;28;20627;-76
2023/08/24 04:35:10;;;;;;;7.97;7.00;;;19.60;99.10;;;;;;5088305;28;20624;-76
2023/08/24 04:37:38;;;;;;;7.50;6.90;;;19.50;98.90;;;;;;5088005;28;20647;-77
2023/08/24 04:40:07;;;;;;;8.53;7.33;;;19.60;99.00;;;;;;5087714;28;21093;-85
2023/08/24 04:42:34;;;;;;;7.93;7.13;;;19.60;98.90;;;;;;5087788;28;21067;-78
2023/08/24 04:45:00;;;;;;;9.43;7.10;;;19.60;99.10;;;;;;5088127;28;20620;-77
2023/08/24 04:47:27;;;;;;;7.03;6.43;;;19.60;99.20;;;;;;5088554;28;20774;-77
2023/08/24 04:49:54;;;;;;;7.93;7.20;;;19.60;99.30;;;;;;5087745;28;20625;-77
2023/08/24 04:52:22;;;;;;;10.07;7.70;;;19.60;99.50;;;;;;5087576;28;21638;-77
2023/08/24 04:54:49;;;;;;;7.20;6.60;;;19.50;99.40;;;;;;5087805;28;20628;-76
2023/08/24 04:57:16;;;;;;;9.23;7.63;;;19.50;99.60;;;;;;5087189;28;20667;-76
2023/08/24 04:59:43;;;;;;;7.60;6.90;;;19.60;99.40;;;;;;5087025;28;20963;-77
2023/08/24 05:02:13;;;;;;;10.40;7.37;;;19.60;99.10;;;;;;5086524;28;20705;-78
2023/08/24 05:04:39;;;;;;;8.47;7.60;;;19.70;98.80;;;;;;5088090;28;20744;-77
2023/08/24 05:07:06;;;;;;;8.53;7.67;;;19.70;98.40;;;;;;5087018;28;20745;-76
2023/08/24 05:09:34;;;;;;;8.77;7.23;;;19.70;98.70;;;;;;5085862;28;20632;-77
2023/08/24 05:12:01;;;;;;;8.23;7.43;;;19.80;98.60;;;;;;5086145;28;20620;-76
2023/08/24 05:14:28;;;;;;;8.40;7.60;;;19.70;98.80;;;;;;5086249;28;20789;-77
2023/08/24 05:16:55;;;;;;;9.03;8.20;;;19.80;98.70;;;;;;5087797;28;20625;-76
2023/08/24 05:19:24;;;;;;;8.50;7.70;;;19.80;98.30;;;;;;5077011;28;20624;-76
2023/08/24 05:21:51;;;;;;;11.23;6.60;;;19.80;98.20;;;;;;5085751;28;20660;-77
2023/08/24 05:24:17;;;;;;;8.40;7.60;;;19.80;98.30;;;;;;5084769;28;20637;-77
2023/08/24 05:26:45;;;;;;;7.67;6.97;;;19.80;98.30;;;;;;5086381;28;20635;-75
2023/08/24 05:29:12;;;;;;;8.17;7.40;;;19.80;98.20;;;;;;5086619;28;20626;-76
2023/08/24 05:31:39;;;;;;;7.43;6.73;;;19.90;98.30;;;;;;5085703;28;20625;-77
2023/08/24 05:34:06;;;;;;;8.63;7.80;;;19.90;98.10;;;;;;5087211;28;20631;-77
2023/08/24 05:36:36;;;;;;;7.07;6.23;;;19.90;97.90;;;;;;5085292;28;21494;-77
2023/08/24 05:39:03;;;;;;;7.70;7.00;;;19.90;97.90;;;;;;5083915;28;20769;-78
2023/08/24 05:41:29;;;;;;;7.47;6.70;;;20.10;97.70;;;;;;5086528;28;20625;-78
2023/08/24 05:43:58;;;;;;;8.20;7.47;;;20.10;97.50;;;;;;5086610;28;20638;-79
2023/08/24 05:46:25;;;;;;;10.60;7.40;;;20.20;97.30;;;;;;5086052;28;21116;-79
2023/08/24 05:48:53;;;;;;;7.23;6.63;;;20.20;96.90;;;;;;5086605;28;20717;-79
2023/08/24 05:51:26;;;;;;;8.30;7.60;;;20.20;97.10;;;;;;5086060;28;20633;-77
2023/08/24 05:53:55;;;;;;;8.43;7.03;;;20.20;97.00;;;;;;5085879;28;20628;-77
2023/08/24 05:56:22;;;;;;;9.80;7.20;;;20.20;97.20;;;;;;5086541;28;20633;-78
2023/08/24 05:58:49;;;;;;;7.07;6.23;;;20.20;97.10;;;;;;5085174;28;20755;-78
2023/08/24 06:01:17;;;;;;;8.00;7.10;;;20.30;97.00;;;;;;5086005;28;20644;-77
2023/08/24 06:03:44;;;;;;;6.30;5.90;;;20.40;97.00;;;;;;5086547;28;21738;-77
2023/08/24 06:06:11;;;;;;;7.17;6.33;;;20.40;96.90;;;;;;5083407;28;20640;-77
2023/08/24 06:08:38;;;;;;;7.90;7.20;;;20.50;96.70;;;;;;5081469;28;20700;-78
2023/08/24 06:11:05;;;;;;;7.13;6.43;;;20.60;96.60;;;;;;5079777;28;20629;-80
2023/08/24 06:13:33;;;;;;;8.90;7.20;;;20.60;96.60;;;;;;5083428;28;20725;-79
2023/08/24 06:16:02;;;;;;;8.57;6.57;;;20.60;96.30;;;;;;5080034;28;20675;-79
2023/08/24 06:18:30;;;;;;;7.50;6.40;;;20.60;96.20;;;;;;5085181;28;21333;-78
2023/08/24 06:20:57;;;;;;;7.43;6.73;;;20.70;96.20;;;;;;5086156;28;20618;-79
2023/08/24 06:23:24;;;;;;;7.47;6.43;;;20.80;96.10;;;;;;5084919;28;20627;-79
2023/08/24 06:25:51;;;;;;;9.03;6.47;;;20.70;96.00;;;;;;5085489;28;21834;-79
2023/08/24 06:28:17;;;;;;;7.27;6.67;;;20.70;96.10;;;;;;5087187;28;20637;-79
2023/08/24 06:30:45;;;;;;;9.47;5.93;;;20.70;96.60;;;;;;5084901;28;20639;-79
2023/08/24 06:33:12;;;;;;;8.20;6.37;;;20.80;96.60;;;;;;5084995;28;21014;-79
2023/08/24 06:35:42;;;;;;;6.33;5.83;;;20.80;96.40;;;;;;5085695;28;20643;-79
2023/08/24 06:38:08;;;;;;;7.80;6.70;;;20.80;96.30;;;;;;5085630;28;20661;-78
2023/08/24 06:40:35;;;;;;;7.67;6.97;;;20.80;96.30;;;;;;5084036;28;21412;-78
2023/08/24 06:43:14;;;;;;;8.07;7.37;;;20.70;97.10;;;;;;5083638;28;21198;-79
2023/08/24 06:45:41;;;;;;;7.67;6.20;;;20.70;97.90;;;;;;5085683;28;20970;-79
2023/08/24 06:48:08;;;;;;;6.33;5.80;;;20.60;98.20;;;;;;5085223;28;20630;-80
2023/08/24 06:50:36;;;;;;;7.77;6.97;;;20.60;98.60;;;;;;5086553;28;20634;-79
2023/08/24 06:53:04;;;;;;;7.53;6.50;;;20.60;98.70;;;;;;5086636;28;20629;-79
2023/08/24 06:55:32;;;;;;;6.90;6.30;;;20.50;98.30;;;;;;5087202;28;20663;-78
2023/08/24 06:57:58;;;;;;;8.10;5.83;;;20.50;98.60;;;;;;5086859;28;20647;-78
2023/08/24 07:00:25;;;;;;;7.60;6.93;;;20.50;98.20;;;;;;5082897;28;20618;-77
2023/08/24 07:02:53;;;;;;;6.60;6.03;;;20.50;98.40;;;;;;5085826;28;20645;-79
2023/08/24 07:05:20;;;;;;;10.40;5.90;;;20.60;98.20;;;;;;5086155;28;20634;-78
2023/08/24 07:07:48;;;;;;;7.17;6.57;;;20.70;98.00;;;;;;5085056;28;21232;-79
2023/08/24 07:10:17;;;;;;;6.03;5.53;;;20.70;97.90;;;;;;5085616;28;20639;-78
2023/08/24 07:12:45;;;;;;;7.00;5.93;;;20.80;97.50;;;;;;5085003;28;20634;-78
2023/08/24 07:15:12;;;;;;;6.83;6.23;;;20.90;97.30;;;;;;5086437;28;21269;-79
2023/08/24 07:17:40;;;;;;;7.00;6.40;;;21.00;97.40;;;;;;5086022;28;20673;-78
2023/08/24 07:20:08;;;;;;;6.63;6.07;;;21.20;97.20;;;;;;5085646;28;20762;-78
2023/08/24 07:22:35;;;;;;;7.80;6.30;;;21.30;97.10;;;;;;5084636;28;20632;-78
2023/08/24 07:25:04;;;;;;;7.63;6.70;;;21.40;97.10;;;;;;5085523;28;20623;-78
2023/08/24 07:27:33;;;;;;;7.03;6.00;;;21.40;97.00;;;;;;5082609;28;20665;-78
2023/08/24 07:30:00;;;;;;;7.27;6.67;;;21.60;96.90;;;;;;5085148;28;20722;-79
2023/08/24 07:32:27;;;;;;;7.60;6.70;;;21.80;96.90;;;;;;5086105;28;20636;-79
2023/08/24 07:34:54;;;;;;;6.47;5.97;;;21.90;96.80;;;;;;5090611;28;20749;-79
2023/08/24 07:37:21;;;;;;;6.80;6.20;;;22.00;96.00;;;;;;5089576;28;20639;-78
2023/08/24 07:39:48;;;;;;;6.03;5.43;;;22.10;96.40;;;;;;5088577;28;20635;-78
2023/08/24 07:42:15;;;;;;;6.40;5.80;;;22.10;97.10;;;;;;5089448;28;20628;-78
2023/08/24 07:44:43;;;;;;;7.80;7.10;;;22.20;96.80;;;;;;5090331;28;20620;-78
2023/08/24 07:47:10;;;;;;;6.13;5.63;;;22.30;96.40;;;;;;5089394;28;20760;-78
2023/08/24 07:49:43;;;;;;;6.40;5.77;;;22.20;96.00;;;;;;5089580;28;20622;-78
2023/08/24 07:52:10;;;;;;;7.30;5.77;;;22.30;95.80;;;;;;5089267;28;20636;-78
2023/08/24 07:54:37;;;;;;;8.33;6.97;;;22.40;95.80;;;;;;5088060;28;20690;-78
2023/08/24 07:57:05;;;;;;;7.40;6.47;;;22.50;95.30;;;;;;5088993;28;20739;-78
2023/08/24 07:59:32;;;;;;;6.87;6.27;;;22.60;95.80;;;;;;5088310;28;20663;-77
2023/08/24 08:02:00;;;;;;;9.30;6.70;;;22.70;95.20;;;;;;5089362;28;20705;-77
2023/08/24 08:04:27;;;;;;;8.73;7.40;;;22.70;94.90;;;;;;5088511;28;20646;-77
2023/08/24 08:06:55;;;;;;;6.77;6.27;;;22.80;95.30;;;;;;5087901;28;20638;-77
2023/08/24 08:09:22;;;;;;;7.07;6.43;;;23.00;95.00;;;;;;5087318;28;20641;-77
2023/08/24 08:11:49;;;;;;;8.33;6.63;;;23.10;94.80;;;;;;5089188;28;21814;-77
2023/08/24 08:14:16;;;;;;;7.03;6.43;;;23.30;95.00;;;;;;5088687;28;20868;-78
2023/08/24 08:16:43;;;;;;;8.07;7.27;;;23.40;94.30;;;;;;5088073;28;20624;-77
2023/08/24 08:19:11;;;;;;;8.50;7.67;;;23.40;94.30;;;;;;5087423;28;20665;-77
2023/08/24 08:21:43;;;;;;;10.03;6.33;;;23.50;94.50;;;;;;5085049;28;20661;-78
2023/08/24 08:24:13;;;;;;;7.03;5.77;;;23.60;94.00;;;;;;5082510;28;20624;-78
2023/08/24 08:26:39;;;;;;;6.37;5.77;;;23.80;93.70;;;;;;5085610;28;20749;-77
2023/08/24 08:29:06;;;;;;;7.83;7.03;;;23.80;93.50;;;;;;5083819;28;20717;-79
2023/08/24 08:31:33;;;;;;;8.03;7.30;;;23.90;93.50;;;;;;5084656;28;20642;-77
2023/08/24 08:34:00;;;;;;;7.57;6.97;;;24.10;93.10;;;;;;5087492;28;20619;-77
2023/08/24 08:36:28;;;;;;;8.13;7.43;;;24.00;92.90;;;;;;5086817;28;20618;-77
2023/08/24 08:38:55;;;;;;;7.97;7.17;;;24.20;92.90;;;;;;5087629;28;20662;-77
2023/08/24 08:41:25;;;;;;;7.73;6.90;;;24.30;92.40;;;;;;5087545;28;20633;-77
2023/08/24 08:44:03;;;;;;;7.77;7.07;;;24.40;92.70;;;;;;5082907;28;21195;-77
2023/08/24 08:46:30;;;;;;;6.70;6.20;;;24.30;92.50;;;;;;5083712;28;20654;-77
2023/08/24 08:48:57;;;;;;;7.33;6.70;;;24.40;92.50;;;;;;5086140;28;21067;-77
2023/08/24 08:51:24;;;;;;;6.30;5.70;;;24.50;92.80;;;;;;5087775;28;21064;-78
2023/08/24 08:53:55;;;;;;;6.90;6.00;;;24.80;92.90;;;;;;5086489;28;20744;-78
2023/08/24 08:56:23;;;;;;;9.37;6.40;;;24.90;92.20;;;;;;5083273;28;20627;-78
2023/08/24 08:58:51;;;;;;;8.63;5.93;;;24.90;92.10;;;;;;5083348;28;21297;-80
2023/08/24 09:01:19;;;;;;;6.70;6.10;;;24.90;92.10;;;;;;5085417;28;20634;-77
2023/08/24 09:03:47;;;;;;;7.20;6.60;;;25.20;92.00;;;;;;5086401;28;20638;-77
2023/08/24 09:06:14;;;;;;;6.37;5.87;;;25.20;91.00;;;;;;5087144;28;20641;-77
2023/08/24 09:08:40;;;;;;;8.97;7.87;;;25.20;91.60;;;;;;5085683;28;20628;-77
2023/08/24 09:11:09;;;;;;;7.30;6.70;;;25.30;91.20;;;;;;5084987;28;20641;-77
2023/08/24 09:13:36;;;;;;;7.40;6.70;;;25.50;91.50;;;;;;5084894;28;21234;-77
2023/08/24 09:16:08;;;;;;;6.50;6.00;;;25.70;90.70;;;;;;5086799;28;20633;-77
2023/08/24 09:18:37;;;;;;;7.60;6.90;;;25.80;91.00;;;;;;5086078;28;20657;-77
2023/08/24 09:21:10;;;;;;;6.50;6.00;;;26.00;90.90;;;;;;5086467;28;20647;-77
2023/08/24 09:23:37;;;;;;;6.23;5.63;;;26.10;90.30;;;;;;5087363;28;20638;-78
2023/08/24 09:26:04;;;;;;;7.40;6.70;;;26.10;90.10;;;;;;5086631;28;20630;-77
2023/08/24 09:28:32;;;;;;;7.03;6.43;;;26.20;89.30;;;;;;5085995;28;20632;-77
2023/08/24 09:31:01;;;;;;;6.73;6.13;;;26.20;88.60;;;;;;5086486;28;21847;-77
2023/08/24 09:33:30;;;;;;;7.70;7.00;;;26.40;89.40;;;;;;5086543;28;20679;-77
2023/08/24 09:36:01;;;;;;;15.53;6.17;;;26.60;89.10;;;;;;5086793;28;20665;-77
2023/08/24 09:38:28;;;;;;;6.83;6.13;;;26.60;88.50;;;;;;5085824;28;20659;-77
2023/08/24 09:40:56;;;;;;;11.43;6.00;;;26.80;87.90;;;;;;5086065;28;20635;-78
2023/08/24 09:43:24;;;;;;;7.27;6.63;;;27.00;87.30;;;;;;5085846;28;21222;-77
2023/08/24 09:45:53;;;;;;;7.10;5.83;;;27.00;87.70;;;;;;5085821;28;20628;-78
2023/08/24 09:48:21;;;;;;;6.63;6.13;;;27.10;86.70;;;;;;5085236;28;20631;-77
2023/08/24 09:50:49;;;;;;;6.20;5.47;;;27.20;87.10;;;;;;5086769;28;20768;-76
2023/08/24 09:53:20;;;;;;;6.90;6.30;;;27.30;86.50;;;;;;5086173;28;20625;-77
2023/08/24 09:55:53;;;;;;;6.23;5.77;;;27.50;84.50;;;;;;5086930;28;20639;-77
2023/08/24 09:58:21;;;;;;;7.40;6.20;;;27.60;85.70;;;;;;5085730;28;21181;-77
2023/08/24 10:00:48;;;;;;;6.37;5.43;;;27.70;84.30;;;;;;5086022;28;20625;-76
2023/08/24 10:03:20;;;;;;;6.00;5.27;;;27.90;84.00;;;;;;5085959;28;20628;-76
2023/08/24 10:05:52;;;;;;;8.90;5.83;;;28.00;81.30;;;;;;5086528;28;20643;-82
2023/08/24 10:08:22;;;;;;;18.10;8.67;;;28.00;83.10;;;;;;5086253;28;20633;-82
2023/08/24 10:10:53;;;;;;;6.60;6.00;;;28.20;81.70;;;;;;5086011;28;20624;-82
2023/08/24 10:13:30;;;;;;;8.90;6.77;;;28.30;82.00;;;;;;5085860;28;21041;-83
2023/08/24 10:15:57;;;;;;;6.10;5.60;;;28.40;81.30;;;;;;5084132;28;20639;-82
2023/08/24 10:18:26;;;;;;;7.33;6.63;;;28.60;79.70;;;;;;5084564;28;21083;-82
2023/08/24 10:20:54;;;;;;;10.30;6.33;;;28.70;79.20;;;;;;5085434;28;20631;-82
2023/08/24 10:23:23;;;;;;;6.47;5.53;;;28.90;79.00;;;;;;5084994;28;20662;-82
2023/08/24 10:25:52;;;;;;;6.87;6.17;;;29.10;78.80;;;;;;5086786;28;20617;-82
2023/08/24 10:28:21;;;;;;;6.60;5.80;;;29.30;79.30;;;;;;5085671;28;20625;-82
2023/08/24 10:30:49;;;;;;;7.40;6.70;;;29.30;78.60;;;;;;5084636;28;20619;-83
2023/08/24 10:33:17;;;;;;;6.73;6.03;;;29.50;79.30;;;;;;5085219;28;20617;-83
2023/08/24 10:35:47;;;;;;;7.20;6.40;;;29.40;79.10;;;;;;5086303;28;20616;-83
2023/08/24 10:38:26;;;;;;;6.77;6.23;;;29.50;79.10;;;;;;5085712;28;21225;-83
2023/08/24 10:40:54;;;;;;;6.70;5.60;;;29.70;78.30;;;;;;5084912;28;20648;-83
2023/08/24 10:43:20;;;;;;;8.40;6.50;;;29.80;79.70;;;;;;5086067;28;20624;-83
2023/08/24 10:45:58;;;;;;;7.43;6.73;;;30.00;78.10;;;;;;5086144;28;20608;-81
2023/08/24 10:48:26;;;;;;;6.87;6.27;;;30.10;77.50;;;;;;5085814;28;20647;-81
2023/08/24 10:51:19;;;;;;;7.23;6.60;;;30.20;78.50;;;;;;5084881;28;20632;-81
2023/08/24 10:53:53;;;;;;;6.67;6.17;;;30.40;77.30;;;;;;5066270;28;21021;-81
2023/08/24 10:56:20;;;;;;;6.90;6.40;;;30.30;77.90;;;;;;5086471;28;20625;-82
2023/08/24 10:58:50;;;;;;;6.70;6.20;;;30.60;76.70;;;;;;5084995;28;20663;-82
2023/08/24 11:01:18;;;;;;;6.13;5.73;;;30.50;76.40;;;;;;5085061;28;20628;-79
2023/08/24 11:03:51;;;;;;;9.97;6.00;;;30.60;77.30;;;;;;5085194;28;20973;-79
2023/08/24 11:06:24;;;;;;;7.20;6.50;;;30.80;75.90;;;;;;5086110;28;20629;-79
2023/08/24 11:09:09;;;;;;;8.20;7.50;;;30.90;76.50;;;;;;5087509;28;20639;-79
2023/08/24 11:11:36;;;;;;;6.27;5.70;;;31.00;75.80;;;;;;5089877;28;20724;-79
2023/08/24 11:14:16;;;;;;;7.80;7.10;;;31.20;76.10;;;;;;5090003;28;20658;-79
2023/08/24 11:16:44;;;;;;;6.50;5.90;;;31.40;75.60;;;;;;5089264;28;20735;-78
2023/08/24 11:19:12;;;;;;;7.60;6.93;;;31.30;76.00;;;;;;5088367;28;20655;-78
2023/08/24 11:21:42;;;;;;;7.50;6.90;;;31.60;75.00;;;;;;5089032;28;20643;-78
2023/08/24 11:24:13;;;;;;;6.87;6.20;;;31.80;75.20;;;;;;5090006;28;20997;-78
2023/08/24 11:26:44;;;;;;;7.30;6.70;;;31.90;73.20;;;;;;5089703;28;20632;-78
2023/08/24 11:29:11;;;;;;;7.87;6.33;;;32.10;73.30;;;;;;5088699;28;20745;-79
2023/08/24 11:31:38;;;;;;;7.50;6.90;;;32.40;73.70;;;;;;5088418;28;20670;-79
2023/08/24 11:34:07;;;;;;;7.43;6.83;;;32.40;72.50;;;;;;5089228;28;21636;-78
2023/08/24 11:36:43;;;;;;;7.00;6.47;;;32.70;71.10;;;;;;5086818;28;20776;-78
2023/08/24 11:39:16;;;;;;;10.10;7.27;;;32.70;70.60;;;;;;5088697;28;20674;-78
2023/08/24 11:41:42;;;;;;;9.43;8.57;;;33.00;71.00;;;;;;5089338;28;21749;-77
2023/08/24 11:44:09;;;;;;;8.33;7.50;;;33.40;69.10;;;;;;5088614;28;20862;-77
2023/08/24 11:46:38;;;;;;;7.80;7.20;;;33.70;69.90;;;;;;5087904;28;20627;-76
2023/08/24 11:49:06;;;;;;;6.90;6.40;;;34.20;67.80;;;;;;5088846;28;20983;-76
2023/08/24 11:51:37;;;;;;;6.93;6.33;;;34.30;67.30;;;;;;5088953;28;20631;-77
2023/08/24 11:54:08;;;;;;;6.70;6.10;;;34.70;65.40;;;;;;5088346;28;20636;-77
2023/08/24 11:56:42;;;;;;;7.00;6.33;;;34.90;65.70;;;;;;5088666;28;20639;-78
2023/08/24 11:59:13;;;;;;;7.10;5.93;;;35.50;64.40;;;;;;5087556;28;20647;-78
2023/08/24 12:01:41;;;;;;;6.53;5.93;;;36.20;64.20;;;;;;5088551;28;21581;-78
2023/08/24 12:04:14;;;;;;;6.23;5.83;;;36.70;61.80;;;;;;5089192;28;21116;-86
2023/08/24 12:06:40;;;;;;;7.30;6.70;;;36.30;59.90;;;;;;5088999;28;20627;-77
2023/08/24 12:09:09;;;;;;;6.43;5.93;;;36.30;60.00;;;;;;5087769;28;20623;-78
2023/08/24 12:11:37;;;;;;;6.77;6.17;;;36.50;59.00;;;;;;5089205;28;20696;-78
2023/08/24 12:14:05;;;;;;;7.80;6.63;;;36.80;57.90;;;;;;5088497;28;20730;-78
2023/08/24 12:16:34;;;;;;;6.60;6.10;;;36.80;58.90;;;;;;5088018;28;20202;-78
2023/08/24 12:19:03;;;;;;;6.63;6.03;;;36.40;58.60;;;;;;5086119;28;20606;-78
2023/08/24 12:21:30;;;;;;;7.07;6.47;;;36.00;58.50;;;;;;5087120;28;20638;-77
2023/08/24 12:23:58;;;;;;;6.30;5.70;;;36.00;59.00;;;;;;5088459;28;20642;-78
2023/08/24 12:26:26;;;;;;;6.60;6.10;;;35.80;58.60;;;;;;5087533;28;21198;-78
2023/08/24 12:28:54;;;;;;;6.60;6.10;;;35.90;58.80;;;;;;5088354;28;20637;-78
2023/08/24 12:31:21;;;;;;;8.43;6.30;;;36.50;57.80;;;;;;5086816;28;20662;-78
2023/08/24 12:34:03;;;;;;;6.33;5.63;;;37.00;57.00;;;;;;5087986;28;20626;-78
2023/08/24 12:36:30;;;;;;;6.10;5.60;;;37.50;56.00;;;;;;5087204;28;20630;-78
2023/08/24 12:38:57;;;;;;;6.00;5.60;;;38.10;56.00;;;;;;5086923;28;20209;-78
2023/08/24 12:41:24;;;;;;;6.32;5.82;;;39.20;53.50;;;;;;5088097;28;20220;-78
2023/08/24 12:43:52;;;;;;;6.88;6.38;;;38.80;54.00;;;;;;5088020;28;20214;-78
2023/08/24 12:46:19;;;;;;;6.63;6.13;;;38.30;54.10;;;;;;5087999;28;20210;-77
2023/08/24 12:48:46;;;;;;;11.75;6.00;;;37.80;55.10;;;;;;5087239;28;20227;-78
2023/08/24 12:51:13;;;;;;;6.55;5.95;;;38.30;53.90;;;;;;5087078;28;20232;-78